sensor_id;sensor_type;location;lat;lon;timestamp;pressure;altitude;pressure_sealevel;temperature;humidity
48204;BME280;33994;50.998;5.864;2023-11-22T00:01:03;102114.00;;;5.16;100.00
48204;BME280;33994;50.998;5.864;2023-11-22T00:04:06;102118.41;;;5.18;100.00
48204;BME280;33994;50.998;5.864;2023-11-22T00:07:11;102127.00;;;5.17;100.00
48204;BME280;33994;50.998;5.864;2023-11-22T00:10:14;102120.84;;;5.14;100.00
48204;BME280;33994;50.998;5.864;2023-11-22T00:13:17;102121.66;;;5.11;100.00
48204;BME280;33994;50.998;5.864;2023-11-22T00:16:21;102130.22;;;5.08;100.00
48204;BME280;33994;50.998;5.864;2023-11-22T00:19:24;102138.88;;;5.09;100.00
48204;BME280;33994;50.998;5.864;2023-11-22T00:22:28;102137.03;;;5.05;100.00
48204;BME280;33994;50.998;5.864;2023-11-22T00:25:31;102127.28;;;4.96;100.00
48204;BME280;33994;50.998;5.864;2023-11-22T00:28:35;102138.47;;;4.95;100.00
48204;BME280;33994;50.998;5.864;2023-11-22T00:31:38;102127.19;;;4.93;100.00
48204;BME280;33994;50.998;5.864;2023-11-22T00:34:41;102125.44;;;4.92;100.00
48204;BME280;33994;50.998;5.864;2023-11-22T00:37:45;102129.72;;;4.92;100.00
48204;BME280;33994;50.998;5.864;2023-11-22T00:40:49;102116.69;;;4.90;100.00
48204;BME280;33994;50.998;5.864;2023-11-22T00:43:52;102126.19;;;4.90;100.00
48204;BME280;33994;50.998;5.864;2023-11-22T00:46:55;102123.56;;;4.88;100.00
48204;BME280;33994;50.998;5.864;2023-11-22T00:49:58;102126.91;;;4.84;100.00
48204;BME280;33994;50.998;5.864;2023-11-22T00:53:02;102126.91;;;4.84;100.00
48204;BME280;33994;50.998;5.864;2023-11-22T00:56:06;102125.88;;;4.79;100.00
48204;BME280;33994;50.998;5.864;2023-11-22T00:59:09;102135.22;;;4.74;100.00
48204;BME280;33994;50.998;5.864;2023-11-22T01:02:13;102137.63;;;4.68;100.00
48204;BME280;33994;50.998;5.864;2023-11-22T01:05:16;102143.56;;;4.63;100.00
48204;BME280;33994;50.998;5.864;2023-11-22T01:08:21;102149.47;;;4.59;100.00
48204;BME280;33994;50.998;5.864;2023-11-22T01:11:24;102150.22;;;4.55;100.00
48204;BME280;33994;50.998;5.864;2023-11-22T01:14:27;102152.72;;;4.52;100.00
48204;BME280;33994;50.998;5.864;2023-11-22T01:17:31;102157.75;;;4.48;100.00
48204;BME280;33994;50.998;5.864;2023-11-22T01:20:34;102162.72;;;4.42;100.00
48204;BME280;33994;50.998;5.864;2023-11-22T01:23:38;102162.72;;;4.42;100.00
48204;BME280;33994;50.998;5.864;2023-11-22T01:26:41;102166.03;;;4.36;100.00
48204;BME280;33994;50.998;5.864;2023-11-22T01:29:44;102181.47;;;4.33;100.00
48204;BME280;33994;50.998;5.864;2023-11-22T01:32:48;102189.19;;;4.31;100.00
48204;BME280;33994;50.998;5.864;2023-11-22T01:35:51;102194.41;;;4.33;100.00
48204;BME280;33994;50.998;5.864;2023-11-22T01:38:55;102195.97;;;4.28;100.00
48204;BME280;33994;50.998;5.864;2023-11-22T01:41:58;102194.13;;;4.24;100.00
48204;BME280;33994;50.998;5.864;2023-11-22T01:45:01;102196.56;;;4.19;100.00
48204;BME280;33994;50.998;5.864;2023-11-22T01:48:05;102205.97;;;4.17;100.00
48204;BME280;33994;50.998;5.864;2023-11-22T01:51:08;102198.97;;;4.14;100.00
48204;BME280;33994;50.998;5.864;2023-11-22T01:54:13;102204.88;;;4.10;100.00
48204;BME280;33994;50.998;5.864;2023-11-22T01:57:17;102218.56;;;4.06;100.00
48204;BME280;33994;50.998;5.864;2023-11-22T02:00:21;102223.69;;;4.05;100.00
48204;BME280;33994;50.998;5.864;2023-11-22T02:03:25;102237.47;;;4.04;100.00
48204;BME280;33994;50.998;5.864;2023-11-22T02:06:28;102227.06;;;4.02;100.00
48204;BME280;33994;50.998;5.864;2023-11-22T02:09:33;102233.94;;;4.02;100.00
48204;BME280;33994;50.998;5.864;2023-11-22T02:12:37;102246.75;;;3.97;100.00
48204;BME280;33994;50.998;5.864;2023-11-22T02:15:40;102248.38;;;3.95;100.00
48204;BME280;33994;50.998;5.864;2023-11-22T02:18:43;102244.91;;;3.95;100.00
48204;BME280;33994;50.998;5.864;2023-11-22T02:21:47;102250.94;;;3.94;100.00
48204;BME280;33994;50.998;5.864;2023-11-22T02:24:51;102249.91;;;3.88;100.00
48204;BME280;33994;50.998;5.864;2023-11-22T02:27:54;102255.75;;;3.84;100.00
48204;BME280;33994;50.998;5.864;2023-11-22T02:30:57;102249.50;;;3.78;100.00
48204;BME280;33994;50.998;5.864;2023-11-22T02:34:00;102247.72;;;3.77;100.00
48204;BME280;33994;50.998;5.864;2023-11-22T02:37:04;102255.44;;;3.75;100.00
48204;BME280;33994;50.998;5.864;2023-11-22T02:40:16;102240.78;;;3.76;100.00
48204;BME280;33994;50.998;5.864;2023-11-22T02:43:19;102243.38;;;3.76;100.00
48204;BME280;33994;50.998;5.864;2023-11-22T02:46:22;102246.75;;;3.73;100.00
48204;BME280;33994;50.998;5.864;2023-11-22T02:49:25;102248.69;;;3.79;100.00
48204;BME280;33994;50.998;5.864;2023-11-22T02:52:28;102246.13;;;3.80;100.00
48204;BME280;33994;50.998;5.864;2023-11-22T02:55:33;102249.63;;;3.81;100.00
48204;BME280;33994;50.998;5.864;2023-11-22T02:58:36;102254.00;;;3.83;100.00
48204;BME280;33994;50.998;5.864;2023-11-22T03:01:39;102260.06;;;3.84;100.00
48204;BME280;33994;50.998;5.864;2023-11-22T03:04:42;102265.22;;;3.84;100.00
48204;BME280;33994;50.998;5.864;2023-11-22T03:07:45;102278.09;;;3.81;100.00
48204;BME280;33994;50.998;5.864;2023-11-22T03:10:50;102282.31;;;3.79;100.00
48204;BME280;33994;50.998;5.864;2023-11-22T03:13:53;102276.31;;;3.80;100.00
48204;BME280;33994;50.998;5.864;2023-11-22T03:16:57;102280.72;;;3.82;100.00
48204;BME280;33994;50.998;5.864;2023-11-22T03:20:00;102267.75;;;3.81;100.00
48204;BME280;33994;50.998;5.864;2023-11-22T03:23:03;102270.34;;;3.81;100.00
48204;BME280;33994;50.998;5.864;2023-11-22T03:26:08;102264.09;;;3.76;100.00
48204;BME280;33994;50.998;5.864;2023-11-22T03:29:11;102261.28;;;3.70;100.00
48204;BME280;33994;50.998;5.864;2023-11-22T03:32:14;102264.66;;;3.67;100.00
48204;BME280;33994;50.998;5.864;2023-11-22T03:35:18;102267.88;;;3.61;100.00
48204;BME280;33994;50.998;5.864;2023-11-22T03:38:21;102276.19;;;3.53;100.00
48204;BME280;33994;50.998;5.864;2023-11-22T03:41:25;102264.72;;;3.46;100.00
48204;BME280;33994;50.998;5.864;2023-11-22T03:44:28;102268.25;;;3.48;100.00
48204;BME280;33994;50.998;5.864;2023-11-22T03:47:32;102283.63;;;3.44;100.00
48204;BME280;33994;50.998;5.864;2023-11-22T03:50:35;102290.50;;;3.43;100.00
48204;BME280;33994;50.998;5.864;2023-11-22T03:53:38;102299.06;;;3.42;100.00
48204;BME280;33994;50.998;5.864;2023-11-22T03:56:42;102286.97;;;3.41;100.00
48204;BME280;33994;50.998;5.864;2023-11-22T03:59:45;102294.84;;;3.44;100.00
48204;BME280;33994;50.998;5.864;2023-11-22T04:02:48;102300.00;;;3.44;100.00
48204;BME280;33994;50.998;5.864;2023-11-22T04:05:52;102308.47;;;3.40;100.00
48204;BME280;33994;50.998;5.864;2023-11-22T04:08:55;102318.72;;;3.37;100.00
48204;BME280;33994;50.998;5.864;2023-11-22T04:11:59;102329.88;;;3.36;100.00
48204;BME280;33994;50.998;5.864;2023-11-22T04:15:03;102356.53;;;3.35;100.00
48204;BME280;33994;50.998;5.864;2023-11-22T04:18:07;102356.44;;;3.32;100.00
48204;BME280;33994;50.998;5.864;2023-11-22T04:21:10;102365.78;;;3.28;100.00
48204;BME280;33994;50.998;5.864;2023-11-22T04:24:13;102362.38;;;3.29;100.00
48204;BME280;33994;50.998;5.864;2023-11-22T04:27:17;102373.47;;;3.27;100.00
48204;BME280;33994;50.998;5.864;2023-11-22T04:30:21;102371.59;;;3.23;100.00
48204;BME280;33994;50.998;5.864;2023-11-22T04:33:24;102372.25;;;3.17;100.00
48204;BME280;33994;50.998;5.864;2023-11-22T04:36:27;102380.91;;;3.19;100.00
48204;BME280;33994;50.998;5.864;2023-11-22T04:39:31;102387.06;;;3.21;100.00
48204;BME280;33994;50.998;5.864;2023-11-22T04:42:35;102395.56;;;3.19;100.00
48204;BME280;33994;50.998;5.864;2023-11-22T04:45:38;102392.09;;;3.18;100.00
48204;BME280;33994;50.998;5.864;2023-11-22T04:48:41;102397.31;;;3.20;100.00
48204;BME280;33994;50.998;5.864;2023-11-22T04:51:45;102397.31;;;3.20;100.00
48204;BME280;33994;50.998;5.864;2023-11-22T04:54:48;102402.63;;;3.23;100.00
48204;BME280;33994;50.998;5.864;2023-11-22T04:57:52;102389.88;;;3.27;100.00
48204;BME280;33994;50.998;5.864;2023-11-22T05:00:56;102389.13;;;3.30;100.00
48204;BME280;33994;50.998;5.864;2023-11-22T05:04:00;102390.16;;;3.35;100.00
48204;BME280;33994;50.998;5.864;2023-11-22T05:07:03;102391.06;;;3.35;100.00
48204;BME280;33994;50.998;5.864;2023-11-22T05:10:06;102382.41;;;3.35;100.00
48204;BME280;33994;50.998;5.864;2023-11-22T05:13:11;102391.94;;;3.36;100.00
48204;BME280;33994;50.998;5.864;2023-11-22T05:16:14;102397.03;;;3.34;100.00
48204;BME280;33994;50.998;5.864;2023-11-22T05:19:18;102396.34;;;3.38;100.00
48204;BME280;33994;50.998;5.864;2023-11-22T05:22:21;102405.09;;;3.42;100.00
48204;BME280;33994;50.998;5.864;2023-11-22T05:25:24;102415.44;;;3.42;100.00
48204;BME280;33994;50.998;5.864;2023-11-22T05:28:29;102414.66;;;3.43;100.00
48204;BME280;33994;50.998;5.864;2023-11-22T05:31:32;102423.13;;;3.39;100.00
48204;BME280;33994;50.998;5.864;2023-11-22T05:34:35;102414.44;;;3.38;100.00
48204;BME280;33994;50.998;5.864;2023-11-22T05:37:38;102410.28;;;3.42;100.00
48204;BME280;33994;50.998;5.864;2023-11-22T05:40:42;102412.94;;;3.44;100.00
48204;BME280;33994;50.998;5.864;2023-11-22T05:43:46;102411.25;;;3.44;100.00
48204;BME280;33994;50.998;5.864;2023-11-22T05:46:49;102415.00;;;3.52;100.00
48204;BME280;33994;50.998;5.864;2023-11-22T05:49:52;102422.50;;;3.46;100.00
48204;BME280;33994;50.998;5.864;2023-11-22T05:52:56;102424.88;;;3.40;100.00
48204;BME280;33994;50.998;5.864;2023-11-22T05:55:59;102415.34;;;3.39;100.00
48204;BME280;33994;50.998;5.864;2023-11-22T05:59:04;102404.09;;;3.38;100.00
48204;BME280;33994;50.998;5.864;2023-11-22T06:02:07;102405.75;;;3.36;100.00
48204;BME280;33994;50.998;5.864;2023-11-22T06:05:10;102402.88;;;3.29;100.00
48204;BME280;33994;50.998;5.864;2023-11-22T06:08:13;102402.03;;;3.30;100.00
48204;BME280;33994;50.998;5.864;2023-11-22T06:11:17;102400.41;;;3.32;100.00
48204;BME280;33994;50.998;5.864;2023-11-22T06:14:21;102410.19;;;3.39;100.00
48204;BME280;33994;50.998;5.864;2023-11-22T06:17:24;102421.34;;;3.38;100.00
48204;BME280;33994;50.998;5.864;2023-11-22T06:20:28;102428.34;;;3.40;100.00
48204;BME280;33994;50.998;5.864;2023-11-22T06:23:31;102425.72;;;3.39;100.00
48204;BME280;33994;50.998;5.864;2023-11-22T06:26:34;102433.47;;;3.39;100.00
48204;BME280;33994;50.998;5.864;2023-11-22T06:29:39;102441.22;;;3.39;100.00
48204;BME280;33994;50.998;5.864;2023-11-22T06:32:42;102455.84;;;3.38;100.00
48204;BME280;33994;50.998;5.864;2023-11-22T06:35:45;102453.31;;;3.40;100.00
48204;BME280;33994;50.998;5.864;2023-11-22T06:38:48;102446.56;;;3.44;100.00
48204;BME280;33994;50.998;5.864;2023-11-22T06:41:52;102442.41;;;3.47;100.00
48204;BME280;33994;50.998;5.864;2023-11-22T06:44:56;102436.66;;;3.54;100.00
48204;BME280;33994;50.998;5.864;2023-11-22T06:47:59;102441.84;;;3.54;100.00
48204;BME280;33994;50.998;5.864;2023-11-22T06:51:02;102438.53;;;3.58;100.00
48204;BME280;33994;50.998;5.864;2023-11-22T06:54:05;102447.22;;;3.60;100.00
48204;BME280;33994;50.998;5.864;2023-11-22T06:57:08;102442.19;;;3.63;100.00
48204;BME280;33994;50.998;5.864;2023-11-22T07:00:14;102443.81;;;3.61;100.00
48204;BME280;33994;50.998;5.864;2023-11-22T07:03:17;102439.47;;;3.60;100.00
48204;BME280;33994;50.998;5.864;2023-11-22T07:06:21;102445.59;;;3.62;100.00
48204;BME280;33994;50.998;5.864;2023-11-22T07:09:24;102455.16;;;3.65;100.00
48204;BME280;33994;50.998;5.864;2023-11-22T07:12:27;102482.06;;;3.69;100.00
48204;BME280;33994;50.998;5.864;2023-11-22T07:15:32;102495.00;;;3.69;100.00
48204;BME280;33994;50.998;5.864;2023-11-22T07:18:34;102500.25;;;3.70;100.00
48204;BME280;33994;50.998;5.864;2023-11-22T07:21:37;102513.22;;;3.72;100.00
48204;BME280;33994;50.998;5.864;2023-11-22T07:24:41;102516.66;;;3.71;100.00
48204;BME280;33994;50.998;5.864;2023-11-22T07:27:44;102495.81;;;3.68;100.00
48204;BME280;33994;50.998;5.864;2023-11-22T07:30:49;102494.94;;;3.67;100.00
48204;BME280;33994;50.998;5.864;2023-11-22T07:33:52;102481.03;;;3.65;100.00
48204;BME280;33994;50.998;5.864;2023-11-22T07:36:55;102481.03;;;3.65;100.00
48204;BME280;33994;50.998;5.864;2023-11-22T07:39:58;102477.56;;;3.64;100.00
48204;BME280;33994;50.998;5.864;2023-11-22T07:43:01;102492.19;;;3.62;100.00
48204;BME280;33994;50.998;5.864;2023-11-22T07:46:07;102493.06;;;3.63;100.00
48204;BME280;33994;50.998;5.864;2023-11-22T07:49:10;102480.16;;;3.64;100.00
48204;BME280;33994;50.998;5.864;2023-11-22T07:52:14;102482.75;;;3.64;100.00
48204;BME280;33994;50.998;5.864;2023-11-22T07:55:17;102484.53;;;3.66;100.00
48204;BME280;33994;50.998;5.864;2023-11-22T07:58:20;102483.72;;;3.67;100.00
48204;BME280;33994;50.998;5.864;2023-11-22T08:01:24;102475.13;;;3.68;100.00
48204;BME280;33994;50.998;5.864;2023-11-22T08:04:27;102468.41;;;3.73;100.00
48204;BME280;33994;50.998;5.864;2023-11-22T08:07:30;102457.19;;;3.72;100.00
48204;BME280;33994;50.998;5.864;2023-11-22T08:10:34;102461.44;;;3.70;100.00
48204;BME280;33994;50.998;5.864;2023-11-22T08:13:37;102468.41;;;3.73;100.00
48204;BME280;33994;50.998;5.864;2023-11-22T08:16:41;102481.44;;;3.74;100.00
48204;BME280;33994;50.998;5.864;2023-11-22T08:19:44;102487.34;;;3.72;100.00
48204;BME280;33994;50.998;5.864;2023-11-22T08:22:48;102498.44;;;3.69;100.00
48204;BME280;33994;50.998;5.864;2023-11-22T08:25:51;102502.13;;;3.74;100.00
48204;BME280;33994;50.998;5.864;2023-11-22T08:28:54;102504.75;;;3.76;100.00
48204;BME280;33994;50.998;5.864;2023-11-22T08:31:59;102518.78;;;3.81;100.00
48204;BME280;33994;50.998;5.864;2023-11-22T08:35:02;102523.97;;;3.81;100.00
48204;BME280;33994;50.998;5.864;2023-11-22T08:38:05;102532.66;;;3.83;100.00
48204;BME280;33994;50.998;5.864;2023-11-22T08:41:08;102543.16;;;3.86;100.00
48204;BME280;33994;50.998;5.864;2023-11-22T08:44:11;102558.81;;;3.89;100.00
48204;BME280;33994;50.998;5.864;2023-11-22T08:47:16;102569.16;;;3.89;100.00
48204;BME280;33994;50.998;5.864;2023-11-22T08:50:19;102574.34;;;3.89;99.84
48204;BME280;33994;50.998;5.864;2023-11-22T08:53:23;102566.63;;;3.91;99.32
48204;BME280;33994;50.998;5.864;2023-11-22T08:56:26;102558.16;;;3.95;99.59
48204;BME280;33994;50.998;5.864;2023-11-22T08:59:28;102547.88;;;3.96;99.36
48204;BME280;33994;50.998;5.864;2023-11-22T09:02:33;102555.00;;;4.02;99.09
48204;BME280;33994;50.998;5.864;2023-11-22T09:05:36;102557.63;;;4.03;99.19
48204;BME280;33994;50.998;5.864;2023-11-22T09:08:40;102556.63;;;4.00;98.99
48204;BME280;33994;50.998;5.864;2023-11-22T09:11:43;102555.88;;;4.02;99.05
48204;BME280;33994;50.998;5.864;2023-11-22T09:14:46;102563.75;;;4.05;99.32
48204;BME280;33994;50.998;5.864;2023-11-22T09:17:51;102562.81;;;4.03;99.28
48204;BME280;33994;50.998;5.864;2023-11-22T09:20:54;102559.28;;;4.01;98.95
48204;BME280;33994;50.998;5.864;2023-11-22T09:23:57;102556.63;;;4.00;98.56
48204;BME280;33994;50.998;5.864;2023-11-22T09:27:00;102556.56;;;3.98;98.74
48204;BME280;33994;50.998;5.864;2023-11-22T09:30:04;102561.88;;;4.01;98.68
48204;BME280;33994;50.998;5.864;2023-11-22T09:33:10;102563.63;;;4.02;98.50
48204;BME280;33994;50.998;5.864;2023-11-22T09:36:15;102561.91;;;4.03;97.96
48204;BME280;33994;50.998;5.864;2023-11-22T09:39:18;102556.00;;;4.05;98.18
48204;BME280;33994;50.998;5.864;2023-11-22T09:42:21;102560.41;;;4.08;97.86
48204;BME280;33994;50.998;5.864;2023-11-22T09:45:24;102556.00;;;4.05;97.69
48204;BME280;33994;50.998;5.864;2023-11-22T09:48:31;102561.16;;;4.05;97.58
48204;BME280;33994;50.998;5.864;2023-11-22T09:51:37;102558.63;;;4.07;97.47
48204;BME280;33994;50.998;5.864;2023-11-22T09:54:43;102557.03;;;4.10;97.28
48204;BME280;33994;50.998;5.864;2023-11-22T09:57:47;102566.47;;;4.08;97.13
48204;BME280;33994;50.998;5.864;2023-11-22T10:00:50;102575.88;;;4.06;96.90
48204;BME280;33994;50.998;5.864;2023-11-22T10:03:55;102578.34;;;4.03;96.83
48204;BME280;33994;50.998;5.864;2023-11-22T10:06:59;102577.63;;;4.07;96.81
48204;BME280;33994;50.998;5.864;2023-11-22T10:10:03;102577.88;;;4.13;96.52
48204;BME280;33994;50.998;5.864;2023-11-22T10:13:06;102566.69;;;4.14;96.44
48204;BME280;33994;50.998;5.864;2023-11-22T10:16:10;102569.41;;;4.18;96.17
48204;BME280;33994;50.998;5.864;2023-11-22T10:19:17;102559.94;;;4.18;95.34
48204;BME280;33994;50.998;5.864;2023-11-22T10:22:20;102564.34;;;4.21;95.26
48204;BME280;33994;50.998;5.864;2023-11-22T10:25:23;102572.13;;;4.21;95.34
48204;BME280;33994;50.998;5.864;2023-11-22T10:28:27;102570.50;;;4.23;95.57
48204;BME280;33994;50.998;5.864;2023-11-22T10:31:30;102560.06;;;4.21;95.27
48204;BME280;33994;50.998;5.864;2023-11-22T10:34:34;102573.13;;;4.24;94.79
48204;BME280;33994;50.998;5.864;2023-11-22T10:37:38;102562.81;;;4.26;94.55
48204;BME280;33994;50.998;5.864;2023-11-22T10:40:41;102564.69;;;4.30;94.29
48204;BME280;33994;50.998;5.864;2023-11-22T10:43:44;102563.06;;;4.32;94.16
48204;BME280;33994;50.998;5.864;2023-11-22T10:46:48;102566.59;;;4.34;94.02
48204;BME280;33994;50.998;5.864;2023-11-22T10:49:52;102556.41;;;4.38;93.95
48204;BME280;33994;50.998;5.864;2023-11-22T10:52:56;102548.81;;;4.43;93.45
48204;BME280;33994;50.998;5.864;2023-11-22T10:56:04;102552.25;;;4.42;93.28
48204;BME280;33994;50.998;5.864;2023-11-22T10:59:11;102551.53;;;4.46;93.37
48204;BME280;33994;50.998;5.864;2023-11-22T11:02:18;102549.88;;;4.48;93.84
48204;BME280;33994;50.998;5.864;2023-11-22T11:05:27;102561.22;;;4.52;93.60
48204;BME280;33994;50.998;5.864;2023-11-22T11:08:33;102566.41;;;4.52;93.71
48204;BME280;33994;50.998;5.864;2023-11-22T11:11:41;102554.31;;;4.52;93.46
48204;BME280;33994;50.998;5.864;2023-11-22T11:14:44;102540.56;;;4.53;93.37
48204;BME280;33994;50.998;5.864;2023-11-22T11:17:48;102547.50;;;4.54;93.78
48204;BME280;33994;50.998;5.864;2023-11-22T11:20:57;102553.63;;;4.56;94.18
48204;BME280;33994;50.998;5.864;2023-11-22T11:24:00;102545.09;;;4.59;93.65
48204;BME280;33994;50.998;5.864;2023-11-22T11:27:04;102534.88;;;4.63;94.48
48204;BME280;33994;50.998;5.864;2023-11-22T11:33:55;102517.09;;;4.73;93.10
48204;BME280;33994;50.998;5.864;2023-11-22T11:37:00;102518.84;;;4.74;92.68
48204;BME280;33994;50.998;5.864;2023-11-22T11:40:25;102513.09;;;4.82;92.01
48204;BME280;33994;50.998;5.864;2023-11-22T11:43:39;102519.53;;;4.92;92.28
48204;BME280;33994;50.998;5.864;2023-11-22T11:46:43;102512.78;;;4.97;91.25
48204;BME280;33994;50.998;5.864;2023-11-22T11:49:48;102503.41;;;5.01;90.39
48204;BME280;33994;50.998;5.864;2023-11-22T11:52:53;102511.22;;;5.02;90.39
48204;BME280;33994;50.998;5.864;2023-11-22T11:55:56;102500.97;;;5.05;90.79
48204;BME280;33994;50.998;5.864;2023-11-22T11:59:01;102494.19;;;5.09;91.32
48204;BME280;33994;50.998;5.864;2023-11-22T12:02:05;102487.38;;;5.13;91.51
48204;BME280;33994;50.998;5.864;2023-11-22T12:05:08;102494.44;;;5.17;91.72
48204;BME280;33994;50.998;5.864;2023-11-22T12:08:13;102479.75;;;5.17;91.33
48204;BME280;33994;50.998;5.864;2023-11-22T12:11:16;102460.78;;;5.18;91.15
48204;BME280;33994;50.998;5.864;2023-11-22T12:14:20;102444.38;;;5.19;91.70
48204;BME280;33994;50.998;5.864;2023-11-22T12:17:23;102429.81;;;5.23;91.55
48204;BME280;33994;50.998;5.864;2023-11-22T12:20:26;102427.34;;;5.27;92.00
48204;BME280;33994;50.998;5.864;2023-11-22T12:23:31;102430.94;;;5.31;91.52
48204;BME280;33994;50.998;5.864;2023-11-22T12:26:34;102410.19;;;5.31;91.71
48204;BME280;33994;50.998;5.864;2023-11-22T12:29:39;102415.38;;;5.31;91.61
48204;BME280;33994;50.998;5.864;2023-11-22T12:32:42;102407.50;;;5.29;91.00
48204;BME280;33994;50.998;5.864;2023-11-22T12:35:46;102401.38;;;5.26;89.97
48204;BME280;33994;50.998;5.864;2023-11-22T12:38:50;102409.88;;;5.22;89.55
48204;BME280;33994;50.998;5.864;2023-11-22T12:41:54;102404.59;;;5.19;89.04
48204;BME280;33994;50.998;5.864;2023-11-22T12:44:57;102401.94;;;5.17;88.64
48204;BME280;33994;50.998;5.864;2023-11-22T12:48:20;102388.00;;;5.14;87.48
48204;BME280;33994;50.998;5.864;2023-11-22T12:51:23;102377.69;;;5.15;87.79
48204;BME280;33994;50.998;5.864;2023-11-22T12:54:28;102367.31;;;5.15;87.21
48204;BME280;33994;50.998;5.864;2023-11-22T12:57:31;102386.28;;;5.14;87.61
48204;BME280;33994;50.998;5.864;2023-11-22T13:00:34;102394.13;;;5.16;87.47
48204;BME280;33994;50.998;5.864;2023-11-22T13:03:37;102400.97;;;5.14;87.92
48204;BME280;33994;50.998;5.864;2023-11-22T13:06:41;102409.78;;;5.19;87.77
48204;BME280;33994;50.998;5.864;2023-11-22T13:09:45;102404.66;;;5.22;88.24
48204;BME280;33994;50.998;5.864;2023-11-22T13:12:48;102399.59;;;5.25;88.73
48204;BME280;33994;50.998;5.864;2023-11-22T13:15:51;102413.50;;;5.27;88.29
48204;BME280;33994;50.998;5.864;2023-11-22T13:18:55;102405.88;;;5.31;87.62
48204;BME280;33994;50.998;5.864;2023-11-22T13:21:58;102418.00;;;5.32;87.38
48204;BME280;33994;50.998;5.864;2023-11-22T13:25:03;102417.13;;;5.32;87.92
48204;BME280;33994;50.998;5.864;2023-11-22T13:28:06;102398.22;;;5.36;88.56
48204;BME280;33994;50.998;5.864;2023-11-22T13:31:09;102406.88;;;5.37;88.81
48204;BME280;33994;50.998;5.864;2023-11-22T13:34:12;102407.75;;;5.37;89.78
48204;BME280;33994;50.998;5.864;2023-11-22T13:37:16;102419.13;;;5.41;90.18
48204;BME280;33994;50.998;5.864;2023-11-22T13:40:20;102426.03;;;5.40;90.44
48204;BME280;33994;50.998;5.864;2023-11-22T13:43:23;102424.38;;;5.42;90.69
48204;BME280;33994;50.998;5.864;2023-11-22T13:46:27;102411.50;;;5.45;90.83
48204;BME280;33994;50.998;5.864;2023-11-22T13:49:30;102427.13;;;5.48;90.65
48204;BME280;33994;50.998;5.864;2023-11-22T13:52:33;102427.38;;;5.56;90.58
48204;BME280;33994;50.998;5.864;2023-11-22T13:55:37;102429.22;;;5.60;90.25
48204;BME280;33994;50.998;5.864;2023-11-22T13:58:41;102414.63;;;5.64;90.20
48204;BME280;33994;50.998;5.864;2023-11-22T14:01:44;102406.91;;;5.65;89.82
48204;BME280;33994;50.998;5.864;2023-11-22T14:04:48;102403.38;;;5.63;90.09
48204;BME280;33994;50.998;5.864;2023-11-22T14:07:51;102388.75;;;5.65;89.58
48204;BME280;33994;50.998;5.864;2023-11-22T14:10:55;102375.66;;;5.62;89.13
48204;BME280;33994;50.998;5.864;2023-11-22T14:13:58;102372.06;;;5.57;89.22
48204;BME280;33994;50.998;5.864;2023-11-22T14:17:01;102377.31;;;5.60;89.34
48204;BME280;33994;50.998;5.864;2023-11-22T14:20:06;102384.31;;;5.61;88.98
48204;BME280;33994;50.998;5.864;2023-11-22T14:23:09;102391.25;;;5.62;88.78
48204;BME280;33994;50.998;5.864;2023-11-22T14:26:14;102395.50;;;5.60;88.17
48204;BME280;33994;50.998;5.864;2023-11-22T14:29:17;102397.28;;;5.61;88.24
48204;BME280;33994;50.998;5.864;2023-11-22T14:32:21;102392.91;;;5.60;88.32
48204;BME280;33994;50.998;5.864;2023-11-22T14:35:24;102375.53;;;5.57;88.41
48204;BME280;33994;50.998;5.864;2023-11-22T14:38:27;102385.91;;;5.57;88.15
48204;BME280;33994;50.998;5.864;2023-11-22T14:41:31;102387.63;;;5.57;88.41
48204;BME280;33994;50.998;5.864;2023-11-22T14:44:34;102384.97;;;5.55;87.84
48204;BME280;33994;50.998;5.864;2023-11-22T14:47:38;102391.03;;;5.56;87.36
48204;BME280;33994;50.998;5.864;2023-11-22T14:50:41;102393.59;;;5.54;87.43
48204;BME280;33994;50.998;5.864;2023-11-22T14:53:44;102396.19;;;5.54;87.17
48204;BME280;33994;50.998;5.864;2023-11-22T15:01:19;102396.06;;;5.50;87.22
48204;BME280;33994;50.998;5.864;2023-11-22T15:04:23;102391.75;;;5.50;87.58
48204;BME280;33994;50.998;5.864;2023-11-22T15:07:26;102393.50;;;5.51;87.47
48204;BME280;33994;50.998;5.864;2023-11-22T15:10:29;102376.09;;;5.47;87.36
48204;BME280;33994;50.998;5.864;2023-11-22T15:13:32;102366.44;;;5.43;87.49
48204;BME280;33994;50.998;5.864;2023-11-22T15:16:36;102375.06;;;5.42;87.45
48204;BME280;33994;50.998;5.864;2023-11-22T15:19:40;102389.78;;;5.43;87.69
48204;BME280;33994;50.998;5.864;2023-11-22T15:22:43;102401.94;;;5.44;87.84
48204;BME280;33994;50.998;5.864;2023-11-22T15:25:46;102400.19;;;5.43;88.25
48204;BME280;33994;50.998;5.864;2023-11-22T15:28:50;102404.50;;;5.43;88.20
48204;BME280;33994;50.998;5.864;2023-11-22T15:31:54;102404.50;;;5.43;88.45
48204;BME280;33994;50.998;5.864;2023-11-22T15:34:59;102403.66;;;5.44;88.76
48204;BME280;33994;50.998;5.864;2023-11-22T15:38:02;102402.81;;;5.45;88.60
48204;BME280;33994;50.998;5.864;2023-11-22T15:41:05;102406.25;;;5.44;88.79
48204;BME280;33994;50.998;5.864;2023-11-22T15:44:08;102400.06;;;5.40;89.22
48204;BME280;33994;50.998;5.864;2023-11-22T15:47:13;102407.84;;;5.40;89.20
48204;BME280;33994;50.998;5.864;2023-11-22T15:50:16;102401.84;;;5.41;89.45
48204;BME280;33994;50.998;5.864;2023-11-22T15:53:19;102400.06;;;5.40;89.31
48204;BME280;33994;50.998;5.864;2023-11-22T15:56:23;102394.00;;;5.40;89.49
48204;BME280;33994;50.998;5.864;2023-11-22T15:59:26;102390.56;;;5.41;89.11
48204;BME280;33994;50.998;5.864;2023-11-22T16:02:30;102396.59;;;5.40;89.31
48204;BME280;33994;50.998;5.864;2023-11-22T16:05:33;102381.91;;;5.40;89.34
48204;BME280;33994;50.998;5.864;2023-11-22T16:08:37;102387.06;;;5.39;89.52
48204;BME280;33994;50.998;5.864;2023-11-22T16:11:40;102384.41;;;5.37;89.34
48204;BME280;33994;50.998;5.864;2023-11-22T16:14:43;102376.63;;;5.37;89.45